createdAt,value
2017-08-09T00:01:30.498Z,86.10
2017-08-09T00:03:59.708Z,85.10
2017-08-09T00:06:28.929Z,85.30
2017-08-09T00:08:57.350Z,85.30
2017-08-09T00:11:25.806Z,85.20
2017-08-09T00:13:54.221Z,84.90
2017-08-09T00:16:23.414Z,82.80
2017-08-09T00:18:52.154Z,82.90
2017-08-09T00:21:20.560Z,82.50
2017-08-09T00:23:49.003Z,82.30
2017-08-09T00:26:17.448Z,81.60
2017-08-09T00:28:46.814Z,81.50
2017-08-09T00:31:15.235Z,81.40
2017-08-09T00:33:44.473Z,81.10
2017-08-09T00:36:12.896Z,81.00
2017-08-09T00:38:41.528Z,81.50
2017-08-09T00:41:10.365Z,81.50
2017-08-09T00:43:38.799Z,81.70
2017-08-09T00:46:07.903Z,81.70
2017-08-09T00:48:36.362Z,81.30
2017-08-09T00:51:04.785Z,81.00
2017-08-09T00:53:33.225Z,81.10
2017-08-09T00:56:01.656Z,81.80
2017-08-09T00:58:30.836Z,81.40
2017-08-09T01:00:59.252Z,81.30
2017-08-09T01:03:27.698Z,81.50
2017-08-09T01:05:56.126Z,81.60
2017-08-09T01:08:24.563Z,81.80
2017-08-09T01:10:53.007Z,82.10
2017-08-09T01:13:21.424Z,81.90
2017-08-09T01:15:50.604Z,83.10
2017-08-09T01:18:19.020Z,82.00
2017-08-09T01:20:47.427Z,82.00
2017-08-09T01:23:15.893Z,81.60
2017-08-09T01:25:44.317Z,81.70
2017-08-09T01:28:12.741Z,81.80
2017-08-09T01:30:41.176Z,81.50
2017-08-09T01:33:09.600Z,81.50
2017-08-09T01:35:38.032Z,81.60
2017-08-09T01:38:06.465Z,81.70
2017-08-09T01:40:36.332Z,81.10
2017-08-09T01:43:04.759Z,81.50
2017-08-09T01:45:33.173Z,81.60
2017-08-09T01:48:01.655Z,81.70
2017-08-09T01:50:30.065Z,81.70
2017-08-09T01:52:59.248Z,81.90
2017-08-09T01:55:27.679Z,81.80
2017-08-09T01:57:56.089Z,82.00
2017-08-09T02:00:23.837Z,82.20
2017-08-09T02:02:52.241Z,82.30
2017-08-09T02:05:20.681Z,82.30
2017-08-09T02:07:49.158Z,82.70
2017-08-09T02:10:17.572Z,82.70
2017-08-09T02:12:46.004Z,83.00
2017-08-09T02:15:14.512Z,83.30
2017-08-09T02:17:42.949Z,83.30
2017-08-09T02:20:11.801Z,84.30
2017-08-09T02:22:40.951Z,84.30
2017-08-09T02:25:09.433Z,84.20
2017-08-09T02:27:37.856Z,84.20
2017-08-09T02:30:06.276Z,84.50
2017-08-09T02:32:35.471Z,84.50
2017-08-09T02:35:04.598Z,84.50
2017-08-09T02:37:33.043Z,84.70
2017-08-09T02:40:01.466Z,85.00
2017-08-09T02:42:29.889Z,85.00
2017-08-09T02:44:59.078Z,84.90
2017-08-09T02:47:28.155Z,85.00
2017-08-09T02:49:56.594Z,84.20
2017-08-09T02:52:25.028Z,84.10
2017-08-09T02:54:53.443Z,84.10
2017-08-09T02:57:21.881Z,84.20
2017-08-09T02:59:50.324Z,84.30
2017-08-09T03:02:18.784Z,84.30
2017-08-09T03:04:47.208Z,84.60
2017-08-09T03:07:15.620Z,84.70
2017-08-09T03:09:44.814Z,85.00
2017-08-09T03:12:14.007Z,85.00
2017-08-09T03:14:43.218Z,85.00
2017-08-09T03:17:12.406Z,85.30
2017-08-09T03:19:41.589Z,85.00
2017-08-09T03:22:10.013Z,85.00
2017-08-09T03:24:38.437Z,85.10
2017-08-09T03:27:06.889Z,85.20
2017-08-09T03:29:35.314Z,85.40
2017-08-09T03:32:04.480Z,85.80
2017-08-09T03:34:33.034Z,85.70
2017-08-09T03:37:01.446Z,85.50
2017-08-09T03:39:29.894Z,85.40
2017-08-09T03:41:58.314Z,85.50
2017-08-09T03:44:26.721Z,85.20
2017-08-09T03:46:55.916Z,85.10
2017-08-09T03:49:25.103Z,85.40
2017-08-09T03:51:54.321Z,85.30
2017-08-09T03:54:22.745Z,85.30
2017-08-09T03:56:51.157Z,85.30
2017-08-09T03:59:20.353Z,86.40
2017-08-09T04:01:49.550Z,85.80
2017-08-09T04:04:18.671Z,85.40
2017-08-09T04:06:47.084Z,85.10
2017-08-09T04:09:15.500Z,85.30
2017-08-09T04:11:44.697Z,85.00
2017-08-09T04:14:13.893Z,85.00
2017-08-09T04:16:42.948Z,84.90
2017-08-09T04:19:12.082Z,84.80
2017-08-09T04:21:41.276Z,84.60
2017-08-09T04:24:09.701Z,84.60
2017-08-09T04:26:38.131Z,84.30
2017-08-09T04:29:07.361Z,84.70
2017-08-09T04:31:35.776Z,84.70
2017-08-09T04:34:04.224Z,83.90
2017-08-09T04:36:32.678Z,84.00
2017-08-09T04:39:01.857Z,83.50
2017-08-09T04:41:30.281Z,83.50
2017-08-09T04:43:58.717Z,83.10
2017-08-09T04:46:27.121Z,82.80
2017-08-09T04:48:55.544Z,82.80
2017-08-09T04:51:23.963Z,83.40
2017-08-09T04:53:53.168Z,83.20
2017-08-09T04:56:22.353Z,83.10
2017-08-09T04:58:51.534Z,83.40
2017-08-09T05:01:19.959Z,83.30
2017-08-09T05:03:48.381Z,83.40
2017-08-09T05:06:16.825Z,83.10
2017-08-09T05:08:45.250Z,83.30
2017-08-09T05:11:13.664Z,82.70
2017-08-09T05:13:42.103Z,82.70
2017-08-09T05:16:10.527Z,82.30
2017-08-09T05:18:38.977Z,82.30
2017-08-09T05:21:07.393Z,82.40
2017-08-09T05:23:35.818Z,82.80
2017-08-09T05:26:04.252Z,83.00
2017-08-09T05:28:32.663Z,83.20
2017-08-09T05:31:01.130Z,83.00
2017-08-09T05:33:29.211Z,83.30
2017-08-09T05:35:57.625Z,82.80
2017-08-09T05:38:27.280Z,82.70
2017-08-09T05:40:55.696Z,82.80
2017-08-09T05:43:24.136Z,82.90
2017-08-09T05:45:52.552Z,83.00
2017-08-09T05:48:20.986Z,83.10
2017-08-09T05:50:49.460Z,82.00
2017-08-09T05:53:18.061Z,82.10
2017-08-09T05:55:46.575Z,82.20
2017-08-09T05:58:15.018Z,82.20
2017-08-09T06:00:43.103Z,82.60
2017-08-09T06:03:11.278Z,81.90
2017-08-09T06:05:39.692Z,82.50
2017-08-09T06:08:09.033Z,82.90
2017-08-09T06:10:37.534Z,82.90
2017-08-09T06:13:05.989Z,82.90
2017-08-09T06:15:34.471Z,82.00
2017-08-09T06:18:03.097Z,82.70
2017-08-09T06:20:31.602Z,83.20
2017-08-09T06:23:00.951Z,81.30
2017-08-09T06:25:29.362Z,81.00
2017-08-09T06:27:57.776Z,80.30
2017-08-09T06:30:26.193Z,80.20
2017-08-09T06:32:54.629Z,79.90
2017-08-09T06:35:23.732Z,79.40
2017-08-09T06:37:52.159Z,79.50
2017-08-09T06:40:20.588Z,79.00
2017-08-09T06:42:49.003Z,79.00
2017-08-09T06:45:17.449Z,78.70
2017-08-09T06:47:45.854Z,77.80
2017-08-09T06:50:14.257Z,77.60
2017-08-09T06:52:42.687Z,77.20
2017-08-09T06:55:11.096Z,77.10
2017-08-09T06:57:39.553Z,76.80
2017-08-09T07:00:07.972Z,76.70
2017-08-09T07:02:36.393Z,74.00
2017-08-09T07:05:04.843Z,73.80
2017-08-09T07:07:33.953Z,74.00
2017-08-09T07:10:03.167Z,74.60
2017-08-09T07:12:32.353Z,74.20
2017-08-09T07:15:01.529Z,75.00
2017-08-09T07:17:29.964Z,74.10
2017-08-09T07:19:58.384Z,74.10
2017-08-09T07:22:26.821Z,75.00
2017-08-09T07:24:55.241Z,73.40
2017-08-09T07:27:23.654Z,70.90
2017-08-09T07:29:52.088Z,69.50
2017-08-09T07:32:20.521Z,70.30
2017-08-09T07:34:48.984Z,71.10
2017-08-09T07:37:18.166Z,69.80
2017-08-09T07:39:46.570Z,69.70
2017-08-09T07:42:15.009Z,68.90
2017-08-09T07:44:43.428Z,70.70
2017-08-09T07:47:11.849Z,71.00
2017-08-09T07:49:40.278Z,69.60
2017-08-09T07:52:09.461Z,69.20
2017-08-09T07:54:38.648Z,69.20
2017-08-09T07:57:07.840Z,68.10
2017-08-09T07:59:36.262Z,68.10
2017-08-09T08:02:05.948Z,67.10
2017-08-09T08:04:35.151Z,67.90
2017-08-09T08:07:04.380Z,66.30
2017-08-09T08:09:33.477Z,66.30
2017-08-09T08:12:01.954Z,67.20
2017-08-09T08:14:30.360Z,65.50
2017-08-09T08:16:58.788Z,65.70
2017-08-09T08:19:27.324Z,65.50
2017-08-09T08:21:55.754Z,65.10
2017-08-09T08:24:24.252Z,65.30
2017-08-09T08:26:52.722Z,62.80
2017-08-09T08:29:21.174Z,61.40
2017-08-09T08:31:50.292Z,59.20
2017-08-09T08:34:18.713Z,60.30
2017-08-09T08:36:47.185Z,60.30
2017-08-09T08:39:16.322Z,60.50
2017-08-09T08:41:44.760Z,58.90
2017-08-09T08:44:13.889Z,58.90
2017-08-09T08:46:43.069Z,57.00
2017-08-09T08:49:11.524Z,57.00
2017-08-09T08:51:39.941Z,57.10
2017-08-09T08:54:09.154Z,56.10
2017-08-09T08:56:38.367Z,54.70
2017-08-09T08:59:08.246Z,55.30
2017-08-09T09:01:36.687Z,55.30
2017-08-09T09:04:05.109Z,56.20
2017-08-09T09:06:34.311Z,60.00
2017-08-09T09:09:03.173Z,59.40
2017-08-09T09:11:31.581Z,58.70
2017-08-09T09:14:00.785Z,56.50
2017-08-09T09:16:29.225Z,56.40
2017-08-09T09:18:57.636Z,58.30
2017-08-09T09:21:26.832Z,57.70
2017-08-09T09:23:56.011Z,57.10
2017-08-09T09:26:24.467Z,57.10
2017-08-09T09:28:52.871Z,57.30
2017-08-09T09:31:22.072Z,59.10
2017-08-09T09:33:50.506Z,59.00
2017-08-09T09:36:18.928Z,59.00
2017-08-09T09:38:48.146Z,58.10
2017-08-09T09:41:19.904Z,58.10
2017-08-09T09:43:48.476Z,58.60
2017-08-09T09:46:17.658Z,59.80
2017-08-09T09:48:46.095Z,59.60
2017-08-09T09:51:14.525Z,59.30
2017-08-09T09:53:43.701Z,57.30
2017-08-09T09:56:12.128Z,57.20
2017-08-09T09:58:40.548Z,54.20
2017-08-09T10:01:08.960Z,51.10
2017-08-09T10:03:38.155Z,51.00
2017-08-09T10:06:07.346Z,50.20
2017-08-09T10:08:35.785Z,50.70
2017-08-09T10:11:04.217Z,51.70
2017-08-09T10:13:32.641Z,49.50
2017-08-09T10:16:01.160Z,49.40
2017-08-09T10:18:29.563Z,50.20
2017-08-09T10:20:58.007Z,49.70
2017-08-09T10:23:27.107Z,48.80
2017-08-09T10:25:55.554Z,50.00
2017-08-09T10:28:23.973Z,50.20
2017-08-09T10:30:52.385Z,51.50
2017-08-09T10:33:20.853Z,52.10
2017-08-09T10:35:49.260Z,52.60
2017-08-09T10:38:17.669Z,52.70
2017-08-09T10:40:46.109Z,53.60
2017-08-09T10:43:14.518Z,53.40
2017-08-09T10:45:42.945Z,53.40
2017-08-09T10:48:11.385Z,54.40
2017-08-09T10:50:39.809Z,55.00
2017-08-09T10:53:08.249Z,55.00
2017-08-09T10:55:36.680Z,56.70
2017-08-09T10:58:05.094Z,56.70
2017-08-09T11:00:33.533Z,56.70
2017-08-09T11:03:01.957Z,57.10
2017-08-09T11:05:30.441Z,57.40
2017-08-09T11:07:58.875Z,58.10
2017-08-09T11:10:27.295Z,57.60
2017-08-09T11:12:55.723Z,56.20
2017-08-09T11:15:24.140Z,54.30
2017-08-09T11:17:52.558Z,54.80
2017-08-09T11:20:21.764Z,50.80
2017-08-09T11:22:50.953Z,52.70
2017-08-09T11:25:20.133Z,51.20
2017-08-09T11:27:48.548Z,51.10
2017-08-09T11:30:16.973Z,48.90
2017-08-09T11:32:45.405Z,47.80
2017-08-09T11:35:13.842Z,50.00
2017-08-09T11:37:42.273Z,51.90
2017-08-09T11:40:10.701Z,51.30
2017-08-09T11:42:39.133Z,50.80
2017-08-09T11:45:07.545Z,52.20
2017-08-09T11:47:35.996Z,53.20
2017-08-09T11:50:04.404Z,53.20
2017-08-09T11:52:33.509Z,53.40
2017-08-09T11:55:01.963Z,53.40
2017-08-09T11:57:30.362Z,53.90
2017-08-09T11:59:58.800Z,53.40
2017-08-09T12:02:27.218Z,52.90
2017-08-09T12:04:55.650Z,52.00
2017-08-09T12:07:24.088Z,53.50
2017-08-09T12:09:52.499Z,51.50
2017-08-09T12:12:20.932Z,48.30
2017-08-09T12:14:49.348Z,51.00
2017-08-09T12:17:18.538Z,50.70
2017-08-09T12:19:47.746Z,49.70
2017-08-09T12:22:16.246Z,49.60
2017-08-09T12:24:44.711Z,49.30
2017-08-09T12:27:13.139Z,51.10
2017-08-09T12:29:41.546Z,51.40
2017-08-09T12:32:10.008Z,52.50
2017-08-09T12:34:38.431Z,50.00
2017-08-09T12:37:06.919Z,51.10
2017-08-09T12:39:35.334Z,52.00
2017-08-09T12:42:03.748Z,51.20
2017-08-09T12:44:32.962Z,51.50
2017-08-09T12:47:01.386Z,51.40
2017-08-09T12:49:29.815Z,52.70
2017-08-09T12:51:58.238Z,52.20
2017-08-09T12:54:26.676Z,50.90
2017-08-09T12:56:55.112Z,52.20
2017-08-09T12:59:23.530Z,52.10
2017-08-09T13:01:51.968Z,52.30
2017-08-09T13:04:20.405Z,53.00
2017-08-09T13:06:48.829Z,52.70
2017-08-09T13:09:17.272Z,51.30
2017-08-09T13:11:45.753Z,51.50
2017-08-09T13:14:14.148Z,50.40
2017-08-09T13:16:42.584Z,51.30
2017-08-09T13:19:11.007Z,49.90
2017-08-09T13:21:39.440Z,50.60
2017-08-09T13:24:07.843Z,50.30
2017-08-09T13:26:36.289Z,50.30
2017-08-09T13:29:05.476Z,51.50
2017-08-09T13:31:34.696Z,51.60
2017-08-09T13:34:03.917Z,51.30
2017-08-09T13:36:32.342Z,51.20
2017-08-09T13:39:00.774Z,51.10
2017-08-09T13:41:29.201Z,49.20
2017-08-09T13:43:57.633Z,51.40
2017-08-09T13:46:26.089Z,53.60
2017-08-09T13:48:54.525Z,54.10
2017-08-09T13:51:23.072Z,53.50
2017-08-09T13:53:51.486Z,50.60
2017-08-09T13:56:19.926Z,49.60
2017-08-09T13:58:48.367Z,51.00
2017-08-09T14:01:17.583Z,52.30
2017-08-09T14:03:46.696Z,51.80
2017-08-09T14:06:15.108Z,50.40
2017-08-09T14:08:43.529Z,49.10
2017-08-09T14:11:11.976Z,48.40
2017-08-09T14:13:40.395Z,48.40
2017-08-09T14:16:08.858Z,50.90
2017-08-09T14:18:38.268Z,49.70
2017-08-09T14:21:07.445Z,49.70
2017-08-09T14:23:36.647Z,50.00
2017-08-09T14:26:05.822Z,48.40
2017-08-09T14:28:34.440Z,48.30
2017-08-09T14:31:02.876Z,49.30
2017-08-09T14:33:31.313Z,47.70
2017-08-09T14:35:59.746Z,50.20
2017-08-09T14:38:28.171Z,49.50
2017-08-09T14:40:56.782Z,48.80
2017-08-09T14:43:25.244Z,49.80
2017-08-09T14:45:53.682Z,49.00
2017-08-09T14:48:22.869Z,49.30
2017-08-09T14:50:51.351Z,49.20
2017-08-09T14:53:21.416Z,49.70
2017-08-09T14:55:49.852Z,49.60
2017-08-09T14:58:19.092Z,49.10
2017-08-09T15:00:47.526Z,49.10
2017-08-09T15:03:16.713Z,52.00
2017-08-09T15:05:45.161Z,51.80
2017-08-09T15:08:13.633Z,50.90
2017-08-09T15:10:42.113Z,51.60
2017-08-09T15:13:10.536Z,51.90
2017-08-09T15:15:39.736Z,54.20
2017-08-09T15:18:08.936Z,54.30
2017-08-09T15:20:38.083Z,54.20
2017-08-09T15:23:06.741Z,55.00
2017-08-09T15:25:35.210Z,55.10
2017-08-09T15:28:03.701Z,54.30
2017-08-09T15:30:32.154Z,53.70
2017-08-09T15:33:00.588Z,54.00
2017-08-09T15:35:29.236Z,54.60
2017-08-09T15:37:57.819Z,54.00
2017-08-09T15:40:26.340Z,55.50
2017-08-09T15:42:54.785Z,55.90
2017-08-09T15:45:23.222Z,56.30
2017-08-09T15:47:51.712Z,55.60
2017-08-09T15:50:21.236Z,54.20
2017-08-09T15:52:49.782Z,54.20
2017-08-09T15:55:19.016Z,54.20
2017-08-09T15:57:47.482Z,54.10
2017-08-09T16:00:15.981Z,53.90
2017-08-09T16:02:49.042Z,53.90
2017-08-09T16:05:17.754Z,53.50
2017-08-09T16:07:46.500Z,52.20
2017-08-09T16:10:14.969Z,52.60
2017-08-09T16:12:43.705Z,53.20
2017-08-09T16:15:12.201Z,52.90
2017-08-09T16:17:41.385Z,53.60
2017-08-09T16:20:09.852Z,53.70
2017-08-09T16:22:38.274Z,54.20
2017-08-09T16:25:06.798Z,54.10
2017-08-09T16:27:35.665Z,53.20
2017-08-09T16:30:03.798Z,53.70
2017-08-09T16:32:32.279Z,53.60
2017-08-09T16:35:00.803Z,53.70
2017-08-09T16:37:29.478Z,52.80
2017-08-09T16:39:58.098Z,53.70
2017-08-09T16:42:26.923Z,53.60
2017-08-09T16:44:55.361Z,53.40
2017-08-09T16:47:24.231Z,53.50
2017-08-09T16:49:52.733Z,53.60
2017-08-09T16:52:21.389Z,54.10
2017-08-09T16:54:49.998Z,53.90
2017-08-09T16:57:19.492Z,56.70
2017-08-09T16:59:48.750Z,57.40
2017-08-09T17:02:17.344Z,57.40
2017-08-09T17:04:46.549Z,59.30
2017-08-09T17:07:15.413Z,59.30
2017-08-09T17:09:43.932Z,58.80
2017-08-09T17:12:13.303Z,59.40
2017-08-09T17:14:41.716Z,59.20
2017-08-09T17:17:10.952Z,59.00
2017-08-09T17:19:39.487Z,58.90
2017-08-09T17:22:08.716Z,59.70
2017-08-09T17:24:37.185Z,59.80
2017-08-09T17:27:05.601Z,59.50
2017-08-09T17:29:34.022Z,60.10
2017-08-09T17:32:03.399Z,60.20
2017-08-09T17:34:31.832Z,60.20
2017-08-09T17:37:00.285Z,60.50
2017-08-09T17:39:29.498Z,59.50
2017-08-09T17:41:57.930Z,59.50
2017-08-09T17:44:26.348Z,59.60
2017-08-09T17:46:55.565Z,60.50
2017-08-09T17:49:24.047Z,60.60
2017-08-09T17:51:52.475Z,60.00
2017-08-09T17:54:21.622Z,59.00
2017-08-09T17:56:50.130Z,58.80
2017-08-09T17:59:18.560Z,58.80
2017-08-09T18:01:47.764Z,58.50
2017-08-09T18:04:16.202Z,58.40
2017-08-09T18:06:44.613Z,58.10
2017-08-09T18:09:13.070Z,58.30
2017-08-09T18:11:41.485Z,58.80
2017-08-09T18:14:09.940Z,58.40
2017-08-09T18:16:39.031Z,57.50
2017-08-09T18:19:08.240Z,58.40
2017-08-09T18:21:37.426Z,58.10
2017-08-09T18:24:06.634Z,59.00
2017-08-09T18:26:35.049Z,59.00
2017-08-09T18:29:03.466Z,58.30
2017-08-09T18:31:31.919Z,57.80
2017-08-09T18:34:00.336Z,58.70
2017-08-09T18:36:29.509Z,58.00
2017-08-09T18:38:57.959Z,58.00
2017-08-09T18:41:27.206Z,57.70
2017-08-09T18:43:56.428Z,57.50
2017-08-09T18:46:24.895Z,57.60
2017-08-09T18:48:54.073Z,58.80
2017-08-09T18:51:22.489Z,58.00
2017-08-09T18:53:50.936Z,58.50
2017-08-09T18:56:20.120Z,58.60
2017-08-09T18:58:48.534Z,58.60
2017-08-09T19:01:17.026Z,58.70
2017-08-09T19:03:46.381Z,58.70
2017-08-09T19:06:15.433Z,59.50
2017-08-09T19:08:45.377Z,59.00
2017-08-09T19:11:13.806Z,59.70
2017-08-09T19:13:42.038Z,59.70
2017-08-09T19:16:10.506Z,59.30
2017-08-09T19:18:38.887Z,59.40
2017-08-09T19:21:07.422Z,60.30
2017-08-09T19:23:35.870Z,59.70
2017-08-09T19:26:05.091Z,59.70
2017-08-09T19:28:33.523Z,59.70
2017-08-09T19:31:01.975Z,59.70
2017-08-09T19:33:30.148Z,59.70
2017-08-09T19:35:58.568Z,59.50
2017-08-09T19:38:28.548Z,59.70
2017-08-09T19:40:56.970Z,59.70
2017-08-09T19:43:25.412Z,58.90
2017-08-09T19:45:53.869Z,59.30
2017-08-09T19:48:22.113Z,59.40
2017-08-09T19:50:51.289Z,60.10
2017-08-09T19:53:19.756Z,60.00
2017-08-09T19:55:48.180Z,59.90
2017-08-09T19:58:16.609Z,60.50
2017-08-09T20:00:45.094Z,60.30
2017-08-09T20:03:13.522Z,61.00
2017-08-09T20:05:41.931Z,60.20
2017-08-09T20:08:12.029Z,60.10
2017-08-09T20:10:40.481Z,60.80
2017-08-09T20:13:09.673Z,60.00
2017-08-09T20:15:38.904Z,61.30
2017-08-09T20:18:07.326Z,61.20
2017-08-09T20:20:36.034Z,61.40
2017-08-09T20:23:04.508Z,61.70
2017-08-09T20:25:32.941Z,61.70
2017-08-09T20:28:01.373Z,61.40
2017-08-09T20:30:29.825Z,61.00
2017-08-09T20:32:58.308Z,60.90
2017-08-09T20:35:26.720Z,61.30
2017-08-09T20:37:55.932Z,61.50
2017-08-09T20:40:25.151Z,61.00
2017-08-09T20:42:53.596Z,61.00
2017-08-09T20:45:22.857Z,61.70
2017-08-09T20:47:51.268Z,60.90
2017-08-09T20:50:20.498Z,61.60
2017-08-09T20:52:48.957Z,61.50
2017-08-09T20:55:18.152Z,62.50
2017-08-09T20:57:47.412Z,62.90
2017-08-09T21:00:16.038Z,62.90
2017-08-09T21:02:44.469Z,62.30
2017-08-09T21:05:12.917Z,62.60
2017-08-09T21:07:42.838Z,62.70
2017-08-09T21:10:11.949Z,62.60
2017-08-09T21:12:40.369Z,62.00
2017-08-09T21:15:09.567Z,64.10
2017-08-09T21:17:38.771Z,63.80
2017-08-09T21:20:07.315Z,63.80
2017-08-09T21:22:35.812Z,63.60
2017-08-09T21:25:04.282Z,63.90
2017-08-09T21:27:32.702Z,64.00
2017-08-09T21:30:01.148Z,64.10
2017-08-09T21:32:29.671Z,64.40
2017-08-09T21:34:58.085Z,64.40
2017-08-09T21:37:26.568Z,65.40
2017-08-09T21:39:54.988Z,65.00
2017-08-09T21:42:24.182Z,65.90
2017-08-09T21:44:53.392Z,66.40
2017-08-09T21:47:21.874Z,66.30
2017-08-09T21:49:50.324Z,65.90
2017-08-09T21:52:19.537Z,66.80
2017-08-09T21:54:47.970Z,65.90
2017-08-09T21:57:16.389Z,66.20
2017-08-09T21:59:45.674Z,65.90
2017-08-09T22:02:14.878Z,66.30
2017-08-09T22:04:44.100Z,66.10
2017-08-09T22:07:13.980Z,66.10
2017-08-09T22:09:43.208Z,66.80
2017-08-09T22:12:11.663Z,66.10
2017-08-09T22:14:40.895Z,65.30
2017-08-09T22:17:09.348Z,65.60
2017-08-09T22:19:37.854Z,65.70
2017-08-09T22:22:06.372Z,65.10
2017-08-09T22:24:35.552Z,65.40
2017-08-09T22:27:03.980Z,64.90
2017-08-09T22:29:33.210Z,65.20
2017-08-09T22:32:03.080Z,65.60
2017-08-09T22:34:32.258Z,65.40
2017-08-09T22:37:00.765Z,65.30
2017-08-09T22:39:30.079Z,65.20
2017-08-09T22:41:58.536Z,65.10
2017-08-09T22:44:26.975Z,64.50
2017-08-09T22:46:55.427Z,64.50
2017-08-09T22:49:23.874Z,64.70
2017-08-09T22:51:53.054Z,64.70
2017-08-09T22:54:21.484Z,64.60
2017-08-09T22:56:49.929Z,64.50
2017-08-09T22:59:19.121Z,64.50
2017-08-09T23:01:48.294Z,64.90
2017-08-09T23:04:16.747Z,64.40
2017-08-09T23:06:45.187Z,64.80
2017-08-09T23:09:14.364Z,65.70
2017-08-09T23:11:42.815Z,65.80
2017-08-09T23:14:11.228Z,65.10
2017-08-09T23:16:40.408Z,65.50
2017-08-09T23:19:08.837Z,65.30
2017-08-09T23:21:37.250Z,65.60
2017-08-09T23:24:05.666Z,65.60
2017-08-09T23:26:34.866Z,66.00
2017-08-09T23:29:04.036Z,65.70
2017-08-09T23:31:32.468Z,65.70
2017-08-09T23:34:00.914Z,66.10
2017-08-09T23:36:30.090Z,67.70
2017-08-09T23:38:58.506Z,66.90
2017-08-09T23:41:26.958Z,67.60
2017-08-09T23:43:55.331Z,68.70
2017-08-09T23:46:23.748Z,69.30
2017-08-09T23:48:52.189Z,68.60
2017-08-09T23:51:20.602Z,69.50
2017-08-09T23:53:49.005Z,70.60
2017-08-09T23:56:17.457Z,72.40
2017-08-09T23:58:46.632Z,73.80
